Meteo Giornale » Osservazioni meteo Stati Uniti (USA) » Tinker
ore: 07:55 - Osservazioni Meteo Tinker
Lat. 35° 25' N Lon. 97° 23' W Alt. 394 metri s.l.m.
25 °C
Sereno
Temp. 24 Ore
23 °C
38 °C
Sud
16.7 Km/h
Dew point 18 °C
Umidità 65 %
Visibilità 10 Km
Il sole sorge alle ore 07:02
Il sole tramonta alle ore 19:56
| Data e Ora | Cielo e Fenomeni | T °C | DP °C | Um. % | Pres. hPa | Vis. km | Vento km/h | |
|---|---|---|---|---|---|---|---|---|
| Oggi h: 07:55 | Sereno | 25 | 18 | 65 | 1017 | 10 | S 16.7 | |
| Oggi h: 06:55 | Sereno | 24 | 17 | 64 | 1017 | 10 | S 16.7 | |
| Oggi h: 05:55 | Sereno | 24 | 16 | 60 | 1016 | 10 | S 16.7 | |
| Oggi h: 04:55 | Sereno | 23 | 15 | 60 | 1016 | 10 | S 14.8 | |
| Oggi h: 03:55 | Sereno | 24 | 16 | 60 | 1016 | 10 | S 14.8 | |
| Oggi h: 02:55 | Sereno | 24 | 16 | 60 | 1016 | 10 | S 16.7 | |
| Oggi h: 01:55 | Sereno | 26 | 16 | 54 | 1016 | 10 | S 9.3 | |
| Oggi h: 00:55 | Sereno | 28 | 14 | 42 | 1016 | 10 | S 14.8 | |
| Ieri h: 23:55 | Sereno | 27 | 16 | 50 | 1016 | 10 | S 14.8 | |
| Ieri h: 22:55 | Sereno | 28 | 15 | 45 | 1015 | 10 | S 14.8 | |
| Ieri h: 21:55 | Sereno | 30 | 15 | 40 | 1015 | 10 | S 13 | |
| Ieri h: 20:55 | Sereno | 31 | 14 | 35 | 1014 | 10 | S/SE 11.1 | |
| Ieri h: 19:55 | Sereno | 34 | 13 | 28 | 1014 | 10 | S 9.3 | |
| Ieri h: 18:55 | Sereno | 36 | 12 | 23 | 1014 | 10 | S 18.5 | |
| Ieri h: 17:55 | Poco Nuvoloso | 37 | 12 | 22 | 1014 | 10 | S 20.3 | |
| Ieri h: 16:55 | Molto Nuvoloso | 37 | 12 | 22 | 1014 | 10 | S/SE 18.5 | |
| Ieri h: 15:55 | Poco Nuvoloso | 37 | 13 | 23 | 1014 | 10 | S/SO 13 | |
| Ieri h: 14:55 | Molto Nuvoloso | 37 | 13 | 23 | 1015 | 10 | S 16.7 | |
| Ieri h: 13:55 | Molto Nuvoloso | 38 | 14 | 24 | 1015 | 10 | S 24 | |
| Ieri h: 12:55 | Sereno | 37 | 14 | 25 | 1016 | 10 | S 22.2 | |
| Ieri h: 11:56 | Sereno | 36 | 17 | 32 | 1017 | 10 | O/SO 18.5 | |
| Ieri h: 11:55 | Sereno | 36 | 17 | 32 | 1017 | 10 | SO 20.3 | |
| Ieri h: 11:06 | Sereno | 35 | 18 | 36 | 1017 | 10 | O/SO 29.6 | |
| Ieri h: 10:55 | Sereno | 35 | 18 | 36 | 1017 | 10 | S/SO 20.3 | |
| Ieri h: 09:55 | Sereno | 32 | 18 | 43 | 1017 | 10 | SO 16.7 | |
| Ieri h: 08:55 | Sereno | 29 | 17 | 48 | 1017 | 10 | S/SO 14.8 | |



